• Back
  •  
  • Position of Reservoir Gates
S.No.
No. of opened gates
Position of opening (In m)
Reporting Date
Reporting Time
Discharge in Cumecs
Discharge in Cusecs
Actual date and time of Gate opening
1
2
3
4
5
6
7
8
1 4 07/08/2014 4:00:00 AM 114.36
2 3 07/09/2014 8:00:00 AM 85.77
3 1 13/09/2014 4:00:00 PM 28.59
4 1 16/09/2014 10:30:00 AM 28.59
5 1 24/07/2015 3:47:17 PM 28
6 2 24/07/2015 5:27:17 PM 40
7 6 25/07/2015 9:03:17 AM 400
8 1 04/08/2015 7:44:54 AM 14
9 1 04/08/2015 7:44:54 AM 14
10 1 08/08/2015 8:44:58 PM 14
11 1 10/08/2015 8:00:58 AM 14
12 1 13/08/2015 12:14:23 PM 20
13 1 15/08/2015 3:01:57 PM 24
14 2 15/08/2015 10:33:58 PM 42
15 1 18/08/2015 7:35:58 AM 14
16 5 18/08/2015 9:55:58 AM 413.97
17 1 29/08/2015 7:18:22 PM 23
18 2 29/08/2015 8:38:22 PM 42
19 2 10/07/2016 9:44:04 AM 55.22
20 2 10/07/2016 9:44:04 AM 55.22
21 1 17/07/2016 2:06:54 PM 18
22 2 23/07/2016 9:12:02 PM 30
23 2 23/07/2016 9:12:02 PM 30
24 2 28/07/2016 12:07:48 PM 35
25 2 01/08/2016 8:35:14 PM 35
26 1 06/08/2016 6:56:34 AM 19
27 2 07/08/2016 7:33:42 AM 32
28 1 14/08/2016 8:42:37 AM 33
29 1 14/08/2016 11:17:29 AM 33
30 2 19/08/2016 10:06:45 PM 59
31 4 20/08/2016 1:25:17 AM 204
32 4 20/08/2016 1:25:17 AM 204
33 6 20/08/2016 11:30:20 AM 1010
34 6 20/08/2016 11:47:23 AM 1010
35 1 23/08/2016 12:43:53 PM 58
36 1 27/08/2016 10:16:10 PM 42
37 1 27/08/2016 10:16:10 PM 42
38 1 27/08/2016 10:20:10 PM 42
Powered by © Water Resources Department (MP). All Rights Reserved.